Aérodrome :
LOGIN :

S'inscrire | Disclaimer

   EN    FR    IT 

 










Légende :    VFR   VFR Marginal   IFR   IFR Intensif   IFR Très Intensif
Visi : 
Plafond : 
>= 8 km
>= 3000ft
5 à 8 km
1000 à 3000 ft
1500m à 5 km
500 à 1000 ft
800 à 1500m
200 à 500 ft
< 800m
< 200 ft
Symboles :   Orages  Brouillard  Fortes neiges  Fortes précipitations  Vent > 20 kt
SIGMETs :   Divers  Orages  Givrage  Turbulence  Onde Orograph.  Cendres Volcan.






- Altitude de l'aérodrome : 289 ft
- Code IATA : ZAD


LDZD - Zadar

DERNIER METAR :
  • 060030Z 06009KT 030V090 CAVOK 14/M02 Q1022

METARs EXPIRÉS :
  • 060000Z 07011KT 030V090 CAVOK 14/M02 Q1022
  • 052330Z 07011KT CAVOK 15/M02 Q1022
  • 052300Z 07013KT CAVOK 15/M02 Q1022
  • 052230Z 07014KT 040V100 CAVOK 15/M02 Q1022
  • 052200Z 07014KT 020V110 CAVOK 15/M02 Q1022

TAF TAF LDZD
Valide du 06 à 00h jusqu'au 07 à 00h UTC


052325Z 0600/0700 06014KT CAVOK TX22/0612Z TN13/0605Z
BECMG 0609/0611 31010KT
BECMG 0616/0619 06008KT



MET'MAP, la Météo Aéronautique d'un coup d'oeil ! - Copyright ORBIFLY Décembre 2007 - Disclaimer

ORBIFLY MET'MAP TEAM :

Programmation & Développement : Alexandra Zaïnal
Sur une idée originale de : Baudouin d'Aumeries
Assistance à la programmation : Marc-Olivier Méhu
Soutien technique & logistique : Manuel Goepfert

Contact : metmap@orbifly.com




SOURCES & CREDITS :

   NOAA